sensor_id;sensor_type;location;lat;lon;timestamp;pressure;altitude;pressure_sealevel;temperature;humidity
14902;BME280;7542;49.078;9.194;2023-03-31T00:00:56;97980.66;;;28.23;32.83
14902;BME280;7542;49.078;9.194;2023-03-31T00:02:03;97974.19;;;28.24;32.68
14902;BME280;7542;49.078;9.194;2023-03-31T00:03:14;97968.78;;;28.24;32.53
14902;BME280;7542;49.078;9.194;2023-03-31T00:04:22;97969.59;;;28.25;32.71
14902;BME280;7542;49.078;9.194;2023-03-31T00:05:25;97964.50;;;28.23;32.75
14902;BME280;7542;49.078;9.194;2023-03-31T00:06:28;97958.31;;;28.23;32.71
14902;BME280;7542;49.078;9.194;2023-03-31T00:07:30;97962.38;;;28.20;32.83
14902;BME280;7542;49.078;9.194;2023-03-31T00:08:33;97958.88;;;28.20;32.70
14902;BME280;7542;49.078;9.194;2023-03-31T00:09:37;97960.28;;;28.17;32.77
14902;BME280;7542;49.078;9.194;2023-03-31T00:10:45;97962.38;;;28.20;32.76
14902;BME280;7542;49.078;9.194;2023-03-31T00:11:48;97964.28;;;28.20;32.84
14902;BME280;7542;49.078;9.194;2023-03-31T00:12:50;97948.41;;;28.18;32.69
14902;BME280;7542;49.078;9.194;2023-03-31T00:13:52;97958.38;;;28.18;32.68
14902;BME280;7542;49.078;9.194;2023-03-31T00:14:54;97958.69;;;28.16;32.72
14902;BME280;7542;49.078;9.194;2023-03-31T00:16:03;97951.09;;;28.18;32.85
14902;BME280;7542;49.078;9.194;2023-03-31T00:17:05;97956.00;;;28.16;32.77
14902;BME280;7542;49.078;9.194;2023-03-31T00:18:07;97949.31;;;28.14;32.69
14902;BME280;7542;49.078;9.194;2023-03-31T00:19:11;97938.53;;;28.14;32.79
14902;BME280;7542;49.078;9.194;2023-03-31T00:20:19;97934.72;;;28.15;32.83
14902;BME280;7542;49.078;9.194;2023-03-31T00:21:23;97936.63;;;28.14;32.76
14902;BME280;7542;49.078;9.194;2023-03-31T00:22:34;97932.03;;;28.15;32.60
14902;BME280;7542;49.078;9.194;2023-03-31T00:23:40;97925.84;;;28.14;32.65
14902;BME280;7542;49.078;9.194;2023-03-31T00:24:42;97932.66;;;28.12;32.84
14902;BME280;7542;49.078;9.194;2023-03-31T00:25:44;97930.75;;;28.12;32.85
14902;BME280;7542;49.078;9.194;2023-03-31T00:26:46;97931.03;;;28.11;32.75
14902;BME280;7542;49.078;9.194;2023-03-31T00:27:48;97931.31;;;28.09;32.77
14902;BME280;7542;49.078;9.194;2023-03-31T00:28:54;97925.13;;;28.09;32.92
14902;BME280;7542;49.078;9.194;2023-03-31T00:29:56;97919.75;;;28.09;32.86
14902;BME280;7542;49.078;9.194;2023-03-31T00:31:02;97918.34;;;28.11;32.47
14902;BME280;7542;49.078;9.194;2023-03-31T00:32:04;97911.34;;;28.10;32.75
14902;BME280;7542;49.078;9.194;2023-03-31T00:33:06;97914.34;;;28.09;32.85
14902;BME280;7542;49.078;9.194;2023-03-31T00:34:08;97913.56;;;28.08;32.76
14902;BME280;7542;49.078;9.194;2023-03-31T00:35:11;97908.47;;;28.07;32.77
14902;BME280;7542;49.078;9.194;2023-03-31T00:36:13;97903.09;;;28.07;32.81
14902;BME280;7542;49.078;9.194;2023-03-31T00:37:22;97908.47;;;28.07;32.87
14902;BME280;7542;49.078;9.194;2023-03-31T00:38:25;97893.91;;;28.08;32.77
14902;BME280;7542;49.078;9.194;2023-03-31T00:39:29;97898.78;;;28.06;32.84
14902;BME280;7542;49.078;9.194;2023-03-31T00:40:35;97891.50;;;28.06;32.90
14902;BME280;7542;49.078;9.194;2023-03-31T00:41:38;97893.41;;;28.06;32.88
14902;BME280;7542;49.078;9.194;2023-03-31T00:42:42;97888.81;;;28.06;32.84
14902;BME280;7542;49.078;9.194;2023-03-31T00:44:20;97889.91;;;28.19;32.69
14902;BME280;7542;49.078;9.194;2023-03-31T00:45:30;97889.00;;;28.10;32.76
14902;BME280;7542;49.078;9.194;2023-03-31T00:48:07;97882.00;;;28.09;32.78
14902;BME280;7542;49.078;9.194;2023-03-31T00:49:46;97878.94;;;28.15;32.54
14902;BME280;7542;49.078;9.194;2023-03-31T00:50:53;97873.75;;;28.05;32.84
14902;BME280;7542;49.078;9.194;2023-03-31T00:53:26;97868.66;;;28.04;32.70
14902;BME280;7542;49.078;9.194;2023-03-31T00:54:32;97867.63;;;27.99;32.73
14902;BME280;7542;49.078;9.194;2023-03-31T00:55:42;97873.81;;;28.00;32.92
14902;BME280;7542;49.078;9.194;2023-03-31T00:56:47;97867.16;;;27.97;32.69
14902;BME280;7542;49.078;9.194;2023-03-31T00:57:54;97861.25;;;27.95;32.79
14902;BME280;7542;49.078;9.194;2023-03-31T00:59:02;97858.25;;;27.97;32.81
14902;BME280;7542;49.078;9.194;2023-03-31T01:00:11;97863.66;;;27.97;32.86
14902;BME280;7542;49.078;9.194;2023-03-31T01:01:20;97866.66;;;27.95;32.90
14902;BME280;7542;49.078;9.194;2023-03-31T01:02:26;97867.25;;;27.92;32.77
14902;BME280;7542;49.078;9.194;2023-03-31T01:03:31;97859.97;;;27.93;32.87
14902;BME280;7542;49.078;9.194;2023-03-31T01:04:42;97858.09;;;27.93;32.82
14902;BME280;7542;49.078;9.194;2023-03-31T01:05:52;97859.69;;;27.94;32.71
14902;BME280;7542;49.078;9.194;2023-03-31T01:07:37;97850.91;;;28.02;32.81
14902;BME280;7542;49.078;9.194;2023-03-31T01:08:43;97858.09;;;27.93;32.48
14902;BME280;7542;49.078;9.194;2023-03-31T01:09:46;97851.69;;;27.89;32.75
14902;BME280;7542;49.078;9.194;2023-03-31T01:10:53;97853.00;;;27.92;32.86
14902;BME280;7542;49.078;9.194;2023-03-31T01:11:57;97851.69;;;27.89;32.84
14902;BME280;7542;49.078;9.194;2023-03-31T01:12:59;97851.19;;;27.87;32.83
14902;BME280;7542;49.078;9.194;2023-03-31T01:14:02;97845.31;;;27.85;32.55
14902;BME280;7542;49.078;9.194;2023-03-31T01:15:06;97845.00;;;27.87;32.70
14902;BME280;7542;49.078;9.194;2023-03-31T01:16:09;97841.00;;;27.84;32.63
14902;BME280;7542;49.078;9.194;2023-03-31T01:17:11;97841.81;;;27.85;32.84
14902;BME280;7542;49.078;9.194;2023-03-31T01:18:20;97846.09;;;27.86;32.92
14902;BME280;7542;49.078;9.194;2023-03-31T01:19:56;97840.19;;;27.97;32.64
14902;BME280;7542;49.078;9.194;2023-03-31T01:27:56;97830.81;;;27.95;32.64
14902;BME280;7542;49.078;9.194;2023-03-31T01:34:28;97815.75;;;27.94;32.59
14902;BME280;7542;49.078;9.194;2023-03-31T01:42:58;97811.88;;;27.72;32.97
14902;BME280;7542;49.078;9.194;2023-03-31T01:46:01;97815.78;;;27.80;32.79
14902;BME280;7542;49.078;9.194;2023-03-31T01:47:21;97821.56;;;27.73;32.84
14902;BME280;7542;49.078;9.194;2023-03-31T01:54:12;97804.09;;;27.71;33.10
14902;BME280;7542;49.078;9.194;2023-03-31T01:55:44;97802.41;;;27.75;32.84
14902;BME280;7542;49.078;9.194;2023-03-31T01:56:58;97811.41;;;27.70;32.71
14902;BME280;7542;49.078;9.194;2023-03-31T01:58:22;97802.81;;;27.68;32.74
14902;BME280;7542;49.078;9.194;2023-03-31T01:59:37;97810.59;;;27.70;32.79
14902;BME280;7542;49.078;9.194;2023-03-31T02:00:48;97809.59;;;27.66;32.54
14902;BME280;7542;49.078;9.194;2023-03-31T02:02:24;97816.16;;;27.73;32.71
14902;BME280;7542;49.078;9.194;2023-03-31T02:03:34;97809.84;;;27.64;32.91
14902;BME280;7542;49.078;9.194;2023-03-31T02:04:49;97811.19;;;27.67;32.83
14902;BME280;7542;49.078;9.194;2023-03-31T02:05:57;97808.25;;;27.63;32.77
14902;BME280;7542;49.078;9.194;2023-03-31T02:07:30;97804.78;;;27.63;32.64
14902;BME280;7542;49.078;9.194;2023-03-31T02:08:36;97806.88;;;27.66;32.79
14902;BME280;7542;49.078;9.194;2023-03-31T02:09:48;97805.28;;;27.65;32.88
14902;BME280;7542;49.078;9.194;2023-03-31T02:10:52;97805.38;;;27.60;32.81
14902;BME280;7542;49.078;9.194;2023-03-31T02:11:56;97810.75;;;27.60;32.84
14902;BME280;7542;49.078;9.194;2023-03-31T02:13:01;97813.47;;;27.60;32.78
14902;BME280;7542;49.078;9.194;2023-03-31T02:14:10;97813.94;;;27.62;32.87
14902;BME280;7542;49.078;9.194;2023-03-31T02:15:23;97805.06;;;27.61;32.69
14902;BME280;7542;49.078;9.194;2023-03-31T02:16:29;97812.34;;;27.61;32.82
14902;BME280;7542;49.078;9.194;2023-03-31T02:17:35;97804.59;;;27.59;32.78
14902;BME280;7542;49.078;9.194;2023-03-31T02:18:43;97806.47;;;27.59;32.62
14902;BME280;7542;49.078;9.194;2023-03-31T02:19:51;97806.47;;;27.59;32.90
14902;BME280;7542;49.078;9.194;2023-03-31T02:20:54;97801.66;;;27.56;32.75
14902;BME280;7542;49.078;9.194;2023-03-31T02:22:00;97796.00;;;27.57;32.82
14902;BME280;7542;49.078;9.194;2023-03-31T02:23:05;97789.31;;;27.55;32.84
14902;BME280;7542;49.078;9.194;2023-03-31T02:24:11;97791.41;;;27.58;32.80
14902;BME280;7542;49.078;9.194;2023-03-31T02:25:19;97789.53;;;27.58;32.87
14902;BME280;7542;49.078;9.194;2023-03-31T02:26:33;97781.13;;;27.60;32.65
14902;BME280;7542;49.078;9.194;2023-03-31T02:27:42;97778.75;;;27.58;32.88
14902;BME280;7542;49.078;9.194;2023-03-31T02:28:45;97782.03;;;27.55;32.81
14902;BME280;7542;49.078;9.194;2023-03-31T02:29:48;97781.22;;;27.55;32.64
14902;BME280;7542;49.078;9.194;2023-03-31T02:32:52;97775.25;;;27.58;32.69
14902;BME280;7542;49.078;9.194;2023-03-31T02:33:34;97762.59;;;27.58;32.72
14902;BME280;7542;49.078;9.194;2023-03-31T02:34:36;97769.34;;;27.56;32.79
14902;BME280;7542;49.078;9.194;2023-03-31T02:35:38;97761.88;;;27.53;32.87
14902;BME280;7542;49.078;9.194;2023-03-31T02:36:43;97763.16;;;27.55;32.89
14902;BME280;7542;49.078;9.194;2023-03-31T02:37:47;97765.38;;;27.53;32.99
14902;BME280;7542;49.078;9.194;2023-03-31T02:38:57;97770.66;;;27.58;32.76
14902;BME280;7542;49.078;9.194;2023-03-31T02:40:07;97765.28;;;27.58;32.65
14902;BME280;7542;49.078;9.194;2023-03-31T02:41:11;97762.69;;;27.53;32.89
14902;BME280;7542;49.078;9.194;2023-03-31T02:42:13;97759.69;;;27.55;32.90
14902;BME280;7542;49.078;9.194;2023-03-31T02:43:15;97760.00;;;27.53;32.81
14902;BME280;7542;49.078;9.194;2023-03-31T02:44:19;97755.41;;;27.54;32.81
14902;BME280;7542;49.078;9.194;2023-03-31T02:45:44;97755.50;;;27.62;32.73
14902;BME280;7542;49.078;9.194;2023-03-31T02:46:47;97753.50;;;27.54;32.78
14902;BME280;7542;49.078;9.194;2023-03-31T02:47:50;97750.31;;;27.52;32.75
14902;BME280;7542;49.078;9.194;2023-03-31T02:48:56;97750.31;;;27.52;33.00
14902;BME280;7542;49.078;9.194;2023-03-31T02:50:02;97741.13;;;27.53;33.02
14902;BME280;7542;49.078;9.194;2023-03-31T02:58:04;97725.69;;;27.59;32.70
14902;BME280;7542;49.078;9.194;2023-03-31T03:07:12;97673.50;;;27.55;32.96
14902;BME280;7542;49.078;9.194;2023-03-31T03:08:51;97664.06;;;27.57;32.50
14902;BME280;7542;49.078;9.194;2023-03-31T03:10:16;97656.38;;;27.51;32.59
14902;BME280;7542;49.078;9.194;2023-03-31T03:12:44;97647.09;;;27.43;32.81
14902;BME280;7542;49.078;9.194;2023-03-31T03:15:25;97632.06;;;27.42;32.73
14902;BME280;7542;49.078;9.194;2023-03-31T03:16:37;97635.06;;;27.40;32.96
14902;BME280;7542;49.078;9.194;2023-03-31T03:17:44;97624.09;;;27.37;32.94
14902;BME280;7542;49.078;9.194;2023-03-31T03:19:04;97620.97;;;27.43;32.97
14902;BME280;7542;49.078;9.194;2023-03-31T03:20:08;97612.81;;;27.35;32.63
14902;BME280;7542;49.078;9.194;2023-03-31T03:21:10;97615.50;;;27.35;32.99
14902;BME280;7542;49.078;9.194;2023-03-31T03:22:11;97619.03;;;27.35;32.96
14902;BME280;7542;49.078;9.194;2023-03-31T03:23:16;97607.44;;;27.35;33.29
14902;BME280;7542;49.078;9.194;2023-03-31T03:24:19;97604.56;;;27.31;32.83
14902;BME280;7542;49.078;9.194;2023-03-31T03:25:23;97604.25;;;27.33;32.85
14902;BME280;7542;49.078;9.194;2023-03-31T03:26:26;97606.16;;;27.32;32.79
14902;BME280;7542;49.078;9.194;2023-03-31T03:27:30;97598.06;;;27.32;32.96
14902;BME280;7542;49.078;9.194;2023-03-31T03:28:33;97600.28;;;27.30;32.88
14902;BME280;7542;49.078;9.194;2023-03-31T03:29:35;97594.28;;;27.33;32.83
14902;BME280;7542;49.078;9.194;2023-03-31T03:30:37;97599.97;;;27.32;32.90
14902;BME280;7542;49.078;9.194;2023-03-31T03:31:41;97588.91;;;27.33;32.93
14902;BME280;7542;49.078;9.194;2023-03-31T03:32:43;97578.44;;;27.32;32.79
14902;BME280;7542;49.078;9.194;2023-03-31T03:33:45;97585.72;;;27.31;32.92
14902;BME280;7542;49.078;9.194;2023-03-31T03:34:47;97573.34;;;27.30;33.04
14902;BME280;7542;49.078;9.194;2023-03-31T03:35:48;97578.44;;;27.32;32.86
14902;BME280;7542;49.078;9.194;2023-03-31T03:36:50;97567.97;;;27.30;32.87
14902;BME280;7542;49.078;9.194;2023-03-31T03:37:52;97583.03;;;27.31;33.03
14902;BME280;7542;49.078;9.194;2023-03-31T03:38:54;97576.06;;;27.30;32.91
14902;BME280;7542;49.078;9.194;2023-03-31T03:39:57;97576.53;;;27.32;32.63
14902;BME280;7542;49.078;9.194;2023-03-31T03:40:59;97576.84;;;27.31;32.85
14902;BME280;7542;49.078;9.194;2023-03-31T03:42:01;97589.19;;;27.32;32.93
14902;BME280;7542;49.078;9.194;2023-03-31T03:43:03;97583.81;;;27.32;33.01
14902;BME280;7542;49.078;9.194;2023-03-31T03:44:05;97578.44;;;27.32;32.95
14902;BME280;7542;49.078;9.194;2023-03-31T03:45:07;97575.44;;;27.33;32.77
14902;BME280;7542;49.078;9.194;2023-03-31T03:46:09;97573.84;;;27.32;32.72
14902;BME280;7542;49.078;9.194;2023-03-31T03:47:12;97571.47;;;27.31;32.79
14902;BME280;7542;49.078;9.194;2023-03-31T03:48:14;97563.38;;;27.31;32.77
14902;BME280;7542;49.078;9.194;2023-03-31T03:49:16;97560.69;;;27.31;32.66
14902;BME280;7542;49.078;9.194;2023-03-31T03:50:18;97562.28;;;27.32;32.72
14902;BME280;7542;49.078;9.194;2023-03-31T03:51:20;97551.81;;;27.30;33.02
14902;BME280;7542;49.078;9.194;2023-03-31T03:52:22;97558.31;;;27.29;32.71
14902;BME280;7542;49.078;9.194;2023-03-31T03:53:24;97547.53;;;27.29;32.94
14902;BME280;7542;49.078;9.194;2023-03-31T03:54:26;97543.75;;;27.30;32.87
14902;BME280;7542;49.078;9.194;2023-03-31T03:55:28;97546.75;;;27.29;32.67
14902;BME280;7542;49.078;9.194;2023-03-31T03:56:30;97534.09;;;27.29;32.86
14902;BME280;7542;49.078;9.194;2023-03-31T03:57:32;97528.38;;;27.31;32.81
14902;BME280;7542;49.078;9.194;2023-03-31T03:58:34;97523.00;;;27.31;32.81
14902;BME280;7542;49.078;9.194;2023-03-31T03:59:36;97519.84;;;27.29;32.79
14902;BME280;7542;49.078;9.194;2023-03-31T04:00:37;97515.72;;;27.31;32.97
14902;BME280;7542;49.078;9.194;2023-03-31T04:01:39;97509.56;;;27.31;32.64
14902;BME280;7542;49.078;9.194;2023-03-31T04:02:42;97508.75;;;27.30;32.63
14902;BME280;7542;49.078;9.194;2023-03-31T04:03:44;97510.66;;;27.30;32.88
14902;BME280;7542;49.078;9.194;2023-03-31T04:04:46;97501.00;;;27.29;32.61
14902;BME280;7542;49.078;9.194;2023-03-31T04:05:48;97497.50;;;27.28;32.75
14902;BME280;7542;49.078;9.194;2023-03-31T04:06:51;97490.03;;;27.25;32.67
14902;BME280;7542;49.078;9.194;2023-03-31T04:07:52;97483.25;;;27.28;32.90
14902;BME280;7542;49.078;9.194;2023-03-31T04:08:54;97486.75;;;27.28;32.71
14902;BME280;7542;49.078;9.194;2023-03-31T04:09:56;97493.22;;;27.27;32.95
14902;BME280;7542;49.078;9.194;2023-03-31T04:10:58;97498.59;;;27.27;33.04
14902;BME280;7542;49.078;9.194;2023-03-31T04:12:00;97500.19;;;27.28;32.78
14902;BME280;7542;49.078;9.194;2023-03-31T04:13:02;97501.00;;;27.29;32.66
14902;BME280;7542;49.078;9.194;2023-03-31T04:14:04;97497.50;;;27.28;32.60
14902;BME280;7542;49.078;9.194;2023-03-31T04:15:07;97492.44;;;27.27;32.76
14902;BME280;7542;49.078;9.194;2023-03-31T04:16:09;97485.47;;;27.26;32.82
14902;BME280;7542;49.078;9.194;2023-03-31T04:17:12;97488.31;;;27.29;32.71
14902;BME280;7542;49.078;9.194;2023-03-31T04:18:16;97496.72;;;27.28;32.63
14902;BME280;7542;49.078;9.194;2023-03-31T04:19:24;97505.28;;;27.30;32.63
14902;BME280;7542;49.078;9.194;2023-03-31T04:20:28;97503.38;;;27.30;32.54
14902;BME280;7542;49.078;9.194;2023-03-31T04:21:32;97500.19;;;27.28;32.95
14902;BME280;7542;49.078;9.194;2023-03-31T04:22:37;97498.00;;;27.30;32.75
14902;BME280;7542;49.078;9.194;2023-03-31T04:23:42;97506.06;;;27.30;32.60
14902;BME280;7542;49.078;9.194;2023-03-31T04:24:47;97509.06;;;27.29;32.75
14902;BME280;7542;49.078;9.194;2023-03-31T04:25:53;97498.00;;;27.30;32.68
14902;BME280;7542;49.078;9.194;2023-03-31T04:26:56;97496.72;;;27.28;32.75
14902;BME280;7542;49.078;9.194;2023-03-31T04:27:58;97495.31;;;27.30;32.66
14902;BME280;7542;49.078;9.194;2023-03-31T04:29:00;97499.09;;;27.29;32.50
14902;BME280;7542;49.078;9.194;2023-03-31T04:30:02;97492.59;;;27.30;32.83
14902;BME280;7542;49.078;9.194;2023-03-31T04:31:04;97481.03;;;27.30;32.73
14902;BME280;7542;49.078;9.194;2023-03-31T04:32:06;97481.03;;;27.30;32.78
14902;BME280;7542;49.078;9.194;2023-03-31T04:33:09;97480.75;;;27.31;32.79
14902;BME280;7542;49.078;9.194;2023-03-31T04:34:14;97462.69;;;27.32;32.76
14902;BME280;7542;49.078;9.194;2023-03-31T04:35:21;97462.06;;;27.35;32.76
14902;BME280;7542;49.078;9.194;2023-03-31T04:36:23;97463.00;;;27.30;32.73
14902;BME280;7542;49.078;9.194;2023-03-31T04:37:25;97465.38;;;27.32;32.57
14902;BME280;7542;49.078;9.194;2023-03-31T04:38:28;97463.16;;;27.34;32.68
14902;BME280;7542;49.078;9.194;2023-03-31T04:39:34;97464.59;;;27.31;32.60
14902;BME280;7542;49.078;9.194;2023-03-31T04:40:36;97461.59;;;27.33;32.86
14902;BME280;7542;49.078;9.194;2023-03-31T04:41:38;97463.00;;;27.30;32.76
14902;BME280;7542;49.078;9.194;2023-03-31T04:42:40;97458.09;;;27.32;32.74
14902;BME280;7542;49.078;9.194;2023-03-31T04:43:42;97465.38;;;27.32;32.72
14902;BME280;7542;49.078;9.194;2023-03-31T04:44:44;97462.69;;;27.32;32.11
14902;BME280;7542;49.078;9.194;2023-03-31T04:45:46;97458.09;;;27.32;32.65
14902;BME280;7542;49.078;9.194;2023-03-31T04:46:48;97456.19;;;27.33;32.55
14902;BME280;7542;49.078;9.194;2023-03-31T04:47:50;97454.63;;;27.32;32.60
14902;BME280;7542;49.078;9.194;2023-03-31T04:48:52;97458.09;;;27.32;32.82
14902;BME280;7542;49.078;9.194;2023-03-31T04:49:54;97460.00;;;27.32;32.63
14902;BME280;7542;49.078;9.194;2023-03-31T04:50:56;97457.63;;;27.30;32.44
14902;BME280;7542;49.078;9.194;2023-03-31T04:51:58;97453.81;;;27.31;32.84
14902;BME280;7542;49.078;9.194;2023-03-31T04:53:00;97451.13;;;27.31;32.65
14902;BME280;7542;49.078;9.194;2023-03-31T04:54:02;97442.25;;;27.31;32.53
14902;BME280;7542;49.078;9.194;2023-03-31T04:55:05;97442.56;;;27.29;32.68
14902;BME280;7542;49.078;9.194;2023-03-31T04:56:07;97442.25;;;27.31;32.55
14902;BME280;7542;49.078;9.194;2023-03-31T04:57:09;97444.94;;;27.31;32.54
14902;BME280;7542;49.078;9.194;2023-03-31T04:58:11;97442.88;;;27.28;32.53
14902;BME280;7542;49.078;9.194;2023-03-31T04:59:13;97439.88;;;27.29;32.82
14902;BME280;7542;49.078;9.194;2023-03-31T05:00:16;97443.66;;;27.28;32.94
14902;BME280;7542;49.078;9.194;2023-03-31T05:01:18;97436.09;;;27.30;32.70
14902;BME280;7542;49.078;9.194;2023-03-31T05:02:20;97432.91;;;27.28;32.84
14902;BME280;7542;49.078;9.194;2023-03-31T05:03:26;97436.41;;;27.29;32.70
14902;BME280;7542;49.078;9.194;2023-03-31T05:04:28;97437.50;;;27.28;32.78
14902;BME280;7542;49.078;9.194;2023-03-31T05:05:31;97439.41;;;27.27;32.61
14902;BME280;7542;49.078;9.194;2023-03-31T05:06:32;97440.50;;;27.26;32.71
14902;BME280;7542;49.078;9.194;2023-03-31T05:07:34;97437.81;;;27.26;32.60
14902;BME280;7542;49.078;9.194;2023-03-31T05:08:36;97445.09;;;27.26;32.59
14902;BME280;7542;49.078;9.194;2023-03-31T05:09:38;97438.13;;;27.25;32.88
14902;BME280;7542;49.078;9.194;2023-03-31T05:10:40;97442.69;;;27.24;32.77
14902;BME280;7542;49.078;9.194;2023-03-31T05:11:42;97441.09;;;27.23;32.82
14902;BME280;7542;49.078;9.194;2023-03-31T05:12:44;97436.50;;;27.24;32.63
14902;BME280;7542;49.078;9.194;2023-03-31T05:13:46;97439.97;;;27.24;32.52
14902;BME280;7542;49.078;9.194;2023-03-31T05:14:47;97439.97;;;27.24;32.81
14902;BME280;7542;49.078;9.194;2023-03-31T05:15:49;97430.31;;;27.23;32.77
14902;BME280;7542;49.078;9.194;2023-03-31T05:16:54;97433.53;;;27.25;32.95
14902;BME280;7542;49.078;9.194;2023-03-31T05:17:58;97428.72;;;27.22;32.67
14902;BME280;7542;49.078;9.194;2023-03-31T05:19:01;97430.31;;;27.23;32.86
14902;BME280;7542;49.078;9.194;2023-03-31T05:20:03;97429.84;;;27.21;32.82
14902;BME280;7542;49.078;9.194;2023-03-31T05:21:18;97431.31;;;27.27;32.70
14902;BME280;7542;49.078;9.194;2023-03-31T05:22:21;97431.91;;;27.24;32.77
14902;BME280;7542;49.078;9.194;2023-03-31T05:23:23;97426.34;;;27.21;32.56
14902;BME280;7542;49.078;9.194;2023-03-31T05:24:25;97435.22;;;27.21;32.78
14902;BME280;7542;49.078;9.194;2023-03-31T05:25:28;97437.13;;;27.21;32.58
14902;BME280;7542;49.078;9.194;2023-03-31T05:26:33;97432.53;;;27.21;32.53
14902;BME280;7542;49.078;9.194;2023-03-31T05:27:35;97434.75;;;27.19;32.37
14902;BME280;7542;49.078;9.194;2023-03-31T05:28:37;97436.94;;;27.17;32.54
14902;BME280;7542;49.078;9.194;2023-03-31T05:29:39;97435.34;;;27.16;32.86
14902;BME280;7542;49.078;9.194;2023-03-31T05:30:40;97438.84;;;27.17;32.84
14902;BME280;7542;49.078;9.194;2023-03-31T05:31:42;97440.72;;;27.16;32.69
14902;BME280;7542;49.078;9.194;2023-03-31T05:32:44;97436.94;;;27.17;32.82
14902;BME280;7542;49.078;9.194;2023-03-31T05:33:46;97449.59;;;27.17;32.47
14902;BME280;7542;49.078;9.194;2023-03-31T05:34:48;97441.53;;;27.17;32.77
14902;BME280;7542;49.078;9.194;2023-03-31T05:35:53;97449.91;;;27.15;32.50
14902;BME280;7542;49.078;9.194;2023-03-31T05:36:55;97453.72;;;27.14;32.76
14902;BME280;7542;49.078;9.194;2023-03-31T05:37:57;97459.88;;;27.14;32.65
14902;BME280;7542;49.078;9.194;2023-03-31T05:38:58;97452.09;;;27.13;32.69
14902;BME280;7542;49.078;9.194;2023-03-31T05:40:01;97455.88;;;27.12;32.60
14902;BME280;7542;49.078;9.194;2023-03-31T05:41:06;97455.28;;;27.15;32.85
14902;BME280;7542;49.078;9.194;2023-03-31T05:42:09;97460.69;;;27.15;32.63
14902;BME280;7542;49.078;9.194;2023-03-31T05:43:11;97453.97;;;27.12;32.68
14902;BME280;7542;49.078;9.194;2023-03-31T05:44:13;97459.09;;;27.14;32.51
14902;BME280;7542;49.078;9.194;2023-03-31T05:45:15;97454.78;;;27.13;32.68
14902;BME280;7542;49.078;9.194;2023-03-31T05:46:17;97456.41;;;27.14;32.79
14902;BME280;7542;49.078;9.194;2023-03-31T05:47:19;97453.72;;;27.14;32.80
14902;BME280;7542;49.078;9.194;2023-03-31T05:48:21;97451.00;;;27.14;33.01
14902;BME280;7542;49.078;9.194;2023-03-31T05:49:23;97447.81;;;27.12;33.06
14902;BME280;7542;49.078;9.194;2023-03-31T05:50:25;97435.66;;;27.14;33.31
14902;BME280;7542;49.078;9.194;2023-03-31T05:51:27;97431.34;;;27.13;32.96
14902;BME280;7542;49.078;9.194;2023-03-31T05:52:29;97433.78;;;27.15;33.24
14902;BME280;7542;49.078;9.194;2023-03-31T05:53:33;97427.88;;;27.13;33.21
14902;BME280;7542;49.078;9.194;2023-03-31T05:54:36;97419.81;;;27.13;33.14
14902;BME280;7542;49.078;9.194;2023-03-31T05:55:38;97418.72;;;27.14;33.18
14902;BME280;7542;49.078;9.194;2023-03-31T05:56:40;97417.09;;;27.13;33.44
14902;BME280;7542;49.078;9.194;2023-03-31T05:57:42;97409.81;;;27.13;33.18
14902;BME280;7542;49.078;9.194;2023-03-31T05:58:44;97410.94;;;27.12;33.10
14902;BME280;7542;49.078;9.194;2023-03-31T05:59:46;97412.03;;;27.11;33.08
14902;BME280;7542;49.078;9.194;2023-03-31T06:00:48;97412.03;;;27.11;33.18
14902;BME280;7542;49.078;9.194;2023-03-31T06:01:50;97409.03;;;27.13;33.26
14902;BME280;7542;49.078;9.194;2023-03-31T06:02:52;97410.94;;;27.12;33.47
14902;BME280;7542;49.078;9.194;2023-03-31T06:03:54;97402.84;;;27.12;33.40
14902;BME280;7542;49.078;9.194;2023-03-31T06:04:56;97400.97;;;27.13;33.32
14902;BME280;7542;49.078;9.194;2023-03-31T06:05:58;97397.47;;;27.12;33.31
14902;BME280;7542;49.078;9.194;2023-03-31T06:07:00;97399.06;;;27.13;33.22
14902;BME280;7542;49.078;9.194;2023-03-31T06:08:02;97396.69;;;27.12;33.34
14902;BME280;7542;49.078;9.194;2023-03-31T06:09:05;97388.59;;;27.12;33.38
14902;BME280;7542;49.078;9.194;2023-03-31T06:10:08;97381.34;;;27.12;32.99
14902;BME280;7542;49.078;9.194;2023-03-31T06:11:18;97373.47;;;27.16;32.88
14902;BME280;7542;49.078;9.194;2023-03-31T06:12:20;97376.75;;;27.13;33.23
14902;BME280;7542;49.078;9.194;2023-03-31T06:13:22;97381.34;;;27.12;33.05
14902;BME280;7542;49.078;9.194;2023-03-31T06:14:26;97377.84;;;27.12;33.08
14902;BME280;7542;49.078;9.194;2023-03-31T06:15:28;97377.53;;;27.13;32.96
14902;BME280;7542;49.078;9.194;2023-03-31T06:16:30;97373.56;;;27.11;32.97
14902;BME280;7542;49.078;9.194;2023-03-31T06:17:32;97375.66;;;27.14;32.98
14902;BME280;7542;49.078;9.194;2023-03-31T06:18:35;97369.78;;;27.12;32.98
14902;BME280;7542;49.078;9.194;2023-03-31T06:19:37;97363.81;;;27.15;32.97
14902;BME280;7542;49.078;9.194;2023-03-31T06:20:41;97367.88;;;27.12;32.97
14902;BME280;7542;49.078;9.194;2023-03-31T06:21:43;97362.50;;;27.12;32.85
14902;BME280;7542;49.078;9.194;2023-03-31T06:22:44;97359.53;;;27.14;32.99
14902;BME280;7542;49.078;9.194;2023-03-31T06:23:47;97361.41;;;27.13;33.05
14902;BME280;7542;49.078;9.194;2023-03-31T06:24:49;97367.09;;;27.12;33.07
14902;BME280;7542;49.078;9.194;2023-03-31T06:25:51;97358.69;;;27.13;33.25
14902;BME280;7542;49.078;9.194;2023-03-31T06:26:54;97354.41;;;27.12;33.19
14902;BME280;7542;49.078;9.194;2023-03-31T06:27:56;97350.63;;;27.13;33.26
14902;BME280;7542;49.078;9.194;2023-03-31T06:28:58;97352.53;;;27.13;33.32
14902;BME280;7542;49.078;9.194;2023-03-31T06:29:59;97343.38;;;27.14;33.20
14902;BME280;7542;49.078;9.194;2023-03-31T06:31:04;97351.44;;;27.14;33.50
14902;BME280;7542;49.078;9.194;2023-03-31T06:32:07;97344.19;;;27.14;33.45
14902;BME280;7542;49.078;9.194;2023-03-31T06:33:09;97353.31;;;27.13;33.39
14902;BME280;7542;49.078;9.194;2023-03-31T06:34:11;97350.63;;;27.13;33.49
14902;BME280;7542;49.078;9.194;2023-03-31T06:35:13;97348.25;;;27.12;33.42
14902;BME280;7542;49.078;9.194;2023-03-31T06:36:18;97346.34;;;27.12;33.21
14902;BME280;7542;49.078;9.194;2023-03-31T06:37:20;97349.03;;;27.12;33.27
14902;BME280;7542;49.078;9.194;2023-03-31T06:38:22;97354.41;;;27.12;33.34